KCON/CON METAR and TAF weather

Enter ICAO airport designator
Station Type Date Time Source
KCON METAR 2020/08/14 02:51 UTC NOAA

KCON 140251Z AUTO 00000KT 10SM CLR 21/16 A3009 RMK AO2 SLP189 T02110156 51009


Station Type Date Time Source
KCON Decoded METAR 2020/08/14 02:51 UTC NOAA

Concord, Concord Municipal Airport, NH, United States (KCON) 43-11-43N 071-30-04W 103M
Aug 13, 2020 - 10:51 PM EDT / 2020.08.14 0251 UTC
Wind: Calm:0
Visibility: 10 mile(s):0
Sky conditions: clear
Temperature: 70.0 F (21.1 C)
Dew Point: 60.1 F (15.6 C)
Relative Humidity: 70%
Pressure (altimeter): 30.09 in. Hg (1018 hPa)
Pressure tendency: 0.03 inches (0.9 hPa) higher than three hours ago
ob: KCON 140251Z AUTO 00000KT 10SM CLR 21/16 A3009 RMK AO2 SLP189 T02110156 51009
cycle: 3

Station Type Date Time Source
KCON TAF 2020/08/13 18:22 UTC NOAA

TAF KCON 131720Z 1318/1418 31004KT P6SM FEW070 BKN250

Example: see airport list